Home   Weather   Spain   Burgos   Past weeks
Flag for Spain

Past Weather in Burgos, Burgos, Spain — Yesterday and Last 2 Weeks

Currently: 36 °F. Clear. (Weather station: Burgos / Villafria, Spain). See more current weather

Past Weather in Burgos — Graph

°F

Burgos Temperature Yesterday

Maximum temperature yesterday: 48 °F (at 1:00 pm)
Minimum temperature yesterday: 32 °F (at 12:00 am)
Average temperature yesterday: 39 °F

High & Low Weather Summary for the Past Weeks

 TemperatureHumidityPressure
High64 °F (Nov 12, 2:30 pm)100% (Nov 12, 7:00 am)30.45 "Hg (Nov 12, 7:00 am)
Low32 °F (Nov 19, 5:30 am)49% (Nov 12, 2:30 pm)29.71 "Hg (Nov 17, 3:00 am)
Average47 °F86%30.02 "Hg
* Reported Nov 12 12:00 am — Nov 27 12:00 am, Burgos. Weather by CustomWeather, © 2022

Note: Actual official high and low records may vary slightly from our data, if they occured in-between our weather recording intervals... More about our weather records

Burgos Weather History for the Previous 24 Hours

Scroll right to see more
 ConditionsComfort  
Time TempWeatherWind HumidityBarometerVisibility
12:00 am
Sun, Nov 27
37 °FClear.5 mph81%30.33 "Hg10 mi
11:00 pm
Sat, Nov 26
39 °FClear.5 mph87%30.36 "Hg10 mi
10:30 pm39 °FClear.5 mph93%30.36 "Hg10 mi
10:00 pm39 °FClear.6 mph93%30.36 "Hg10 mi
9:30 pm39 °FClear.5 mph93%30.36 "Hg10 mi
9:00 pm41 °FClear.9 mph93%30.36 "Hg10 mi
8:30 pm39 °FClear.5 mph93%30.36 "Hg10 mi
8:00 pm41 °FPassing clouds.5 mph93%30.36 "HgN/A
7:30 pm37 °FClear.5 mph93%30.36 "Hg10 mi
7:00 pm39 °FClear.7 mph87%30.36 "Hg10 mi
6:00 pm41 °FClear.5 mph87%30.36 "Hg10 mi
5:30 pm45 °FSunny.5 mph81%30.36 "Hg10 mi
5:00 pm46 °FSunny.6 mph76%30.36 "Hg10 mi
4:30 pm46 °FSunny.6 mph76%30.39 "Hg10 mi
4:00 pm46 °FSunny.8 mph76%30.36 "Hg10 mi
3:30 pm48 °FSunny.10 mph66%30.39 "Hg10 mi
3:00 pm46 °FSunny.10 mph76%30.39 "Hg10 mi
2:00 pm46 °FSunny.10 mph76%30.39 "Hg10 mi
1:30 pm48 °FSunny.10 mph66%30.39 "Hg10 mi
1:00 pm48 °FSunny.12 mph66%30.42 "Hg10 mi
12:30 pm46 °FPassing clouds.10 mph71%30.42 "HgN/A
12:00 pm46 °FSunny.12 mph71%30.42 "Hg10 mi
11:30 am46 °FSunny.13 mph71%30.42 "Hg10 mi
11:00 am45 °FPassing clouds.9 mph76%30.45 "HgN/A
10:30 am41 °FSunny.2 mph87%30.42 "Hg10 mi
10:00 am37 °FSunny.5 mph87%30.42 "Hg10 mi
9:30 am36 °FPassing clouds.3 mph87%30.42 "HgN/A
9:00 am34 °FSunny.6 mph93%30.42 "Hg10 mi
8:30 am34 °FSunny.5 mph93%30.42 "Hg10 mi
8:00 am34 °FClear.3 mph93%30.42 "Hg10 mi
7:30 am34 °FClear.5 mph93%30.42 "Hg10 mi
7:00 am34 °FClear.2 mph93%30.42 "Hg10 mi
6:30 am34 °FClear.2 mph93%30.42 "Hg10 mi
6:00 am34 °FPassing clouds.3 mph93%30.39 "HgN/A
5:30 am34 °FClear.2 mph93%30.39 "Hg10 mi
5:00 am34 °FClear.2 mph93%30.42 "Hg10 mi
4:30 am32 °FClear.No wind93%30.42 "Hg10 mi
4:00 am32 °FClear.5 mph93%30.39 "Hg10 mi
3:30 am32 °FClear.No wind93%30.42 "Hg10 mi
3:00 am32 °FClear.No wind93%30.42 "Hg10 mi
2:30 am32 °FClear.No wind100%30.42 "Hg10 mi
2:00 am34 °FClear.No wind93%30.42 "Hg10 mi
Weather by CustomWeather, © 2022

See weather overview